Time;durP1;ratioP1;P1;durP2;ratioP2;P2;SDS_P1;SDS_P2;PMS_P1;PMS_P2;Temp;Humidity;BMP_temperature;BMP_pressure;BME280_temperature;BME280_humidity;BME280_pressure;Samples;Min_cycle;Max_cycle;Signal;HPM_P1;HPM_P2
2023/05/21 00:02:20;;;;;;;3.13;2.40;;;20.00;64.20;;;;;;5137207;27;45359;-70
2023/05/21 00:04:47;;;;;;;3.30;2.50;;;20.00;64.20;;;;;;5132714;27;45624;-70
2023/05/21 00:07:15;;;;;;;3.78;2.75;;;20.00;64.10;;;;;;5135633;27;45485;-70
2023/05/21 00:09:42;;;;;;;3.60;2.55;;;20.00;64.20;;;;;;5133464;27;45524;-70
2023/05/21 00:12:11;;;;;;;3.83;2.95;;;20.00;64.20;;;;;;5137299;27;45502;-70
2023/05/21 00:14:37;;;;;;;5.88;2.80;;;20.00;64.30;;;;;;5137748;27;45193;-71
2023/05/21 00:17:05;;;;;;;4.63;2.83;;;20.00;64.30;;;;;;5133333;27;48233;-70
2023/05/21 00:19:32;;;;;;;5.43;2.97;;;20.00;64.30;;;;;;5134500;27;45454;-70
2023/05/21 00:22:01;;;;;;;4.15;3.08;;;20.00;64.40;;;;;;5137149;27;45312;-70
2023/05/21 00:24:28;;;;;;;4.50;3.10;;;20.00;64.30;;;;;;5136111;27;45545;-69
2023/05/21 00:26:54;;;;;;;4.28;2.80;;;20.00;64.40;;;;;;5130012;27;47898;-70
2023/05/21 00:29:22;;;;;;;3.47;2.78;;;20.00;64.30;;;;;;5135000;27;45721;-70
2023/05/21 00:31:51;;;;;;;4.68;3.00;;;20.00;64.50;;;;;;5135839;27;45367;-70
2023/05/21 00:34:17;;;;;;;4.85;2.65;;;20.00;64.50;;;;;;5133314;27;45472;-70
2023/05/21 00:36:45;;;;;;;4.30;2.90;;;20.00;64.50;;;;;;5134949;27;48006;-70
2023/05/21 00:39:12;;;;;;;3.95;2.78;;;20.00;64.50;;;;;;5137194;27;45250;-71
2023/05/21 00:41:41;;;;;;;4.07;2.78;;;20.00;64.50;;;;;;5133706;27;45486;-70
2023/05/21 00:44:08;;;;;;;3.30;2.65;;;20.00;64.50;;;;;;5136133;27;45485;-70
2023/05/21 00:46:37;;;;;;;3.78;2.55;;;20.00;64.50;;;;;;5134234;27;45419;-70
2023/05/21 00:49:04;;;;;;;4.47;2.85;;;20.00;64.40;;;;;;5133853;27;45408;-70
2023/05/21 00:51:31;;;;;;;4.30;3.00;;;20.00;64.30;;;;;;5136903;27;45476;-70
2023/05/21 00:53:58;;;;;;;3.28;2.60;;;20.00;64.30;;;;;;5135193;27;45209;-70
2023/05/21 00:56:26;;;;;;;3.05;2.40;;;20.00;64.30;;;;;;5134699;27;45311;-71
2023/05/21 00:58:54;;;;;;;3.40;2.45;;;20.00;64.30;;;;;;5133421;27;45977;-70
2023/05/21 01:01:24;;;;;;;4.20;2.72;;;20.00;64.20;;;;;;5131002;27;45461;-70
2023/05/21 01:03:53;;;;;;;4.03;2.92;;;20.00;64.20;;;;;;5130766;27;45833;-69
2023/05/21 01:06:20;;;;;;;4.63;2.83;;;20.00;64.30;;;;;;5132065;27;46604;-70
2023/05/21 01:08:47;;;;;;;3.58;2.33;;;20.00;64.20;;;;;;5130930;27;45279;-70
2023/05/21 01:11:14;;;;;;;4.63;2.92;;;20.00;64.20;;;;;;5135926;27;45416;-70
2023/05/21 01:13:42;;;;;;;3.03;2.22;;;20.00;64.30;;;;;;5135329;27;45516;-70
2023/05/21 01:16:12;;;;;;;3.80;2.50;;;20.00;64.30;;;;;;5129435;27;46590;-70
2023/05/21 01:18:42;;;;;;;3.95;2.88;;;20.00;64.30;;;;;;5126023;27;45383;-69
2023/05/21 01:21:10;;;;;;;3.30;2.60;;;20.00;64.40;;;;;;5135000;27;45370;-70
2023/05/21 01:23:38;;;;;;;4.35;2.83;;;19.90;65.40;;;;;;5134814;27;45322;-70
2023/05/21 01:26:06;;;;;;;4.97;2.83;;;19.90;64.30;;;;;;5126325;27;48576;-70
2023/05/21 01:28:33;;;;;;;5.13;2.90;;;19.90;64.30;;;;;;5131530;27;45456;-69
2023/05/21 01:31:10;;;;;;;4.88;2.67;;;19.90;64.40;;;;;;5134889;27;45429;-70
2023/05/21 01:33:41;;;;;;;3.30;2.70;;;19.90;64.40;;;;;;5134594;27;45360;-70
2023/05/21 01:36:14;;;;;;;3.42;2.80;;;19.90;64.40;;;;;;5132917;27;47087;-70
2023/05/21 01:38:47;;;;;;;4.45;2.72;;;19.90;64.40;;;;;;5134704;27;45504;-70
2023/05/21 01:41:17;;;;;;;4.40;2.85;;;19.90;64.40;;;;;;5132609;27;45463;-70
2023/05/21 01:43:46;;;;;;;4.63;3.05;;;19.90;64.40;;;;;;5134380;27;45277;-70
2023/05/21 01:46:16;;;;;;;4.45;3.10;;;19.90;65.40;;;;;;5130041;27;46386;-70
2023/05/21 01:48:44;;;;;;;3.25;2.20;;;19.90;64.40;;;;;;5128518;27;45441;-69
2023/05/21 01:51:11;;;;;;;4.30;2.65;;;19.90;64.30;;;;;;5129628;27;45552;-70
2023/05/21 01:53:39;;;;;;;5.60;2.88;;;19.90;64.30;;;;;;5124379;27;45200;-69
2023/05/21 01:56:08;;;;;;;3.05;2.63;;;19.90;64.30;;;;;;5129098;27;45466;-70
2023/05/21 01:58:34;;;;;;;3.78;2.72;;;19.90;64.30;;;;;;5133173;27;45490;-70
2023/05/21 02:01:03;;;;;;;3.38;2.60;;;19.90;64.30;;;;;;5126669;27;45307;-69
2023/05/21 02:03:31;;;;;;;6.38;2.60;;;19.90;64.30;;;;;;5128060;27;45461;-70
2023/05/21 02:05:57;;;;;;;4.05;2.55;;;19.90;64.20;;;;;;5127133;27;46289;-70
2023/05/21 02:08:26;;;;;;;4.60;2.85;;;19.90;64.30;;;;;;5123879;27;45339;-70
2023/05/21 02:10:52;;;;;;;3.88;2.60;;;20.00;64.30;;;;;;5140165;27;45347;-69
2023/05/21 02:13:21;;;;;;;4.05;2.38;;;20.00;64.40;;;;;;5131839;27;45303;-70
2023/05/21 02:15:48;;;;;;;4.47;2.70;;;20.00;64.30;;;;;;5124807;27;45484;-70
2023/05/21 02:18:17;;;;;;;4.10;2.55;;;20.00;64.30;;;;;;5131769;27;45387;-70
2023/05/21 02:20:44;;;;;;;4.70;2.65;;;19.90;64.30;;;;;;5123730;27;45469;-70
2023/05/21 02:23:10;;;;;;;4.20;2.45;;;19.90;64.30;;;;;;5128391;27;45592;-70
2023/05/21 02:25:37;;;;;;;4.15;2.53;;;19.90;64.30;;;;;;5131465;27;48190;-70
2023/05/21 02:28:05;;;;;;;3.08;2.33;;;20.00;64.50;;;;;;5127150;27;45408;-70
2023/05/21 02:30:33;;;;;;;3.97;2.83;;;19.90;64.30;;;;;;5126213;27;45473;-70
2023/05/21 02:33:01;;;;;;;4.10;2.50;;;19.90;64.40;;;;;;5125127;27;45204;-70
2023/05/21 02:35:28;;;;;;;3.65;2.50;;;19.90;64.30;;;;;;5122500;27;46507;-70
2023/05/21 02:37:58;;;;;;;3.88;2.30;;;19.90;64.30;;;;;;5124652;27;45481;-70
2023/05/21 02:40:25;;;;;;;4.03;2.70;;;19.90;64.30;;;;;;5136245;27;45551;-70
2023/05/21 02:42:52;;;;;;;3.38;2.70;;;19.90;64.30;;;;;;5135987;27;45460;-69
2023/05/21 02:45:19;;;;;;;3.10;2.60;;;19.90;64.30;;;;;;5135778;27;45304;-70
2023/05/21 02:47:47;;;;;;;4.03;2.40;;;19.90;64.30;;;;;;5145740;27;45365;-69
2023/05/21 02:50:14;;;;;;;3.97;2.75;;;19.90;64.30;;;;;;5135055;27;45263;-69
2023/05/21 02:52:41;;;;;;;3.20;2.33;;;19.90;64.30;;;;;;5126374;27;45342;-70
2023/05/21 02:55:09;;;;;;;2.75;2.45;;;19.90;64.30;;;;;;5138543;27;45497;-69
2023/05/21 02:57:35;;;;;;;3.90;2.45;;;19.90;64.30;;;;;;5148970;27;45717;-70
2023/05/21 03:00:04;;;;;;;3.83;2.42;;;19.90;64.30;;;;;;5132677;27;45419;-69
2023/05/21 03:02:31;;;;;;;3.10;2.20;;;19.90;64.40;;;;;;5122280;27;45350;-69
2023/05/21 03:04:59;;;;;;;3.53;2.20;;;19.90;64.30;;;;;;5128652;27;47067;-69
2023/05/21 03:07:26;;;;;;;2.90;2.28;;;19.90;64.30;;;;;;5131528;27;45369;-70
2023/05/21 03:09:53;;;;;;;3.50;2.25;;;19.90;64.30;;;;;;5127217;27;45358;-70
2023/05/21 03:12:20;;;;;;;2.92;1.85;;;19.90;64.30;;;;;;5131810;27;45405;-69
2023/05/21 03:14:46;;;;;;;3.50;2.60;;;19.90;64.30;;;;;;5140002;27;47053;-69
2023/05/21 03:17:13;;;;;;;2.90;2.00;;;19.90;65.40;;;;;;5129431;27;45478;-70
2023/05/21 03:19:40;;;;;;;2.60;2.15;;;19.90;64.30;;;;;;5133206;27;45304;-69
2023/05/21 03:22:10;;;;;;;3.25;2.38;;;19.90;64.30;;;;;;5126127;27;45515;-69
2023/05/21 03:24:37;;;;;;;6.28;2.20;;;19.90;64.40;;;;;;5131352;27;46289;-70
2023/05/21 03:27:05;;;;;;;2.83;2.15;;;19.90;64.40;;;;;;5139498;27;45408;-70
2023/05/21 03:29:32;;;;;;;2.00;1.73;;;19.90;64.40;;;;;;5124843;27;45413;-69
2023/05/21 03:32:00;;;;;;;2.70;2.38;;;19.90;64.50;;;;;;5155179;27;45217;-69
2023/05/21 03:34:27;;;;;;;3.15;2.33;;;19.90;64.50;;;;;;5134795;27;46091;-70
2023/05/21 03:36:54;;;;;;;2.30;1.77;;;19.90;64.40;;;;;;5131746;27;45318;-69
2023/05/21 03:39:22;;;;;;;3.35;2.53;;;19.90;64.40;;;;;;5140669;27;45383;-69
2023/05/21 03:41:48;;;;;;;3.03;2.17;;;19.90;64.50;;;;;;5127103;27;45253;-69
2023/05/21 03:44:15;;;;;;;3.70;1.80;;;19.90;64.40;;;;;;5126366;27;45367;-69
2023/05/21 03:46:44;;;;;;;2.45;1.95;;;19.90;64.50;;;;;;5128688;27;45489;-69
2023/05/21 03:49:10;;;;;;;3.58;1.85;;;19.90;64.40;;;;;;5137016;27;45627;-70
2023/05/21 03:51:38;;;;;;;2.70;2.00;;;19.90;64.40;;;;;;5131661;27;45269;-70
2023/05/21 03:54:05;;;;;;;3.75;2.38;;;19.90;64.50;;;;;;5128225;27;48178;-70
2023/05/21 03:56:33;;;;;;;2.88;2.08;;;19.90;64.50;;;;;;5134251;27;45427;-70
2023/05/21 03:59:00;;;;;;;2.33;1.90;;;19.90;64.40;;;;;;5125974;27;45525;-70
2023/05/21 04:01:27;;;;;;;2.90;2.00;;;19.90;64.40;;;;;;5131905;27;45696;-70
2023/05/21 04:03:54;;;;;;;2.72;2.00;;;19.90;64.40;;;;;;5124580;27;46779;-70
2023/05/21 04:06:21;;;;;;;2.25;1.90;;;19.90;64.40;;;;;;5127779;27;45269;-69
2023/05/21 04:08:48;;;;;;;2.65;1.83;;;19.90;64.40;;;;;;5146774;27;45335;-69
2023/05/21 04:11:15;;;;;;;2.83;2.00;;;19.90;64.40;;;;;;5132886;27;45317;-70
2023/05/21 04:13:43;;;;;;;2.45;2.05;;;19.90;64.30;;;;;;5125369;27;46302;-70
2023/05/21 04:16:13;;;;;;;2.05;1.67;;;19.90;64.30;;;;;;5125528;27;46150;-70
2023/05/21 04:18:40;;;;;;;2.45;1.90;;;19.90;64.40;;;;;;5126132;27;45293;-70
2023/05/21 04:21:07;;;;;;;2.50;2.00;;;19.90;64.40;;;;;;5125712;27;45525;-69
2023/05/21 04:23:35;;;;;;;2.22;1.85;;;19.90;64.40;;;;;;5126639;27;48865;-69
2023/05/21 04:26:03;;;;;;;3.05;1.90;;;19.90;64.40;;;;;;5131841;27;45416;-69
2023/05/21 04:28:30;;;;;;;3.20;2.20;;;19.90;64.40;;;;;;5148942;27;45373;-69
2023/05/21 04:30:58;;;;;;;2.25;1.90;;;19.90;64.50;;;;;;5125406;27;45518;-70
2023/05/21 04:33:25;;;;;;;2.28;2.00;;;19.90;64.50;;;;;;5140637;27;46278;-69
2023/05/21 04:35:52;;;;;;;2.13;1.77;;;19.90;64.50;;;;;;5141811;27;46088;-70
2023/05/21 04:38:19;;;;;;;3.13;1.90;;;19.90;64.50;;;;;;5141567;27;45457;-69
2023/05/21 04:40:47;;;;;;;2.10;1.55;;;19.90;64.50;;;;;;5142848;27;45608;-70
2023/05/21 04:43:15;;;;;;;2.28;2.00;;;19.90;64.40;;;;;;5142277;27;47168;-69
2023/05/21 04:45:42;;;;;;;2.83;1.80;;;19.90;64.40;;;;;;5123868;27;46449;-70
2023/05/21 04:48:14;;;;;;;2.55;1.70;;;19.90;64.40;;;;;;5127150;27;45306;-70
2023/05/21 04:50:41;;;;;;;2.25;1.55;;;19.90;64.40;;;;;;5134895;27;45520;-70
2023/05/21 04:53:08;;;;;;;2.30;1.83;;;19.90;64.40;;;;;;5130111;27;47148;-70
2023/05/21 04:55:38;;;;;;;2.65;1.58;;;19.90;64.40;;;;;;5145091;27;46271;-70
2023/05/21 04:58:05;;;;;;;2.58;1.80;;;19.90;64.40;;;;;;5133453;27;45468;-70
2023/05/21 05:00:32;;;;;;;2.22;1.65;;;19.90;64.40;;;;;;5130532;27;45278;-70
2023/05/21 05:02:59;;;;;;;1.80;1.42;;;19.90;64.40;;;;;;5137777;27;45496;-70
2023/05/21 05:05:27;;;;;;;2.80;1.75;;;19.90;64.40;;;;;;5125335;27;45268;-71
2023/05/21 05:07:54;;;;;;;2.40;1.77;;;19.90;64.40;;;;;;5125128;27;45218;-70
2023/05/21 05:10:21;;;;;;;2.47;1.80;;;19.90;64.40;;;;;;5137228;27;45602;-70
2023/05/21 05:12:48;;;;;;;1.70;1.58;;;19.90;64.40;;;;;;5130682;27;47937;-69
2023/05/21 05:15:15;;;;;;;3.10;1.73;;;19.90;64.40;;;;;;5128821;27;45293;-69
2023/05/21 05:17:42;;;;;;;2.25;1.60;;;20.00;64.50;;;;;;5133669;27;45485;-70
2023/05/21 05:20:10;;;;;;;2.08;1.80;;;19.90;64.40;;;;;;5138957;27;45343;-70
2023/05/21 05:22:38;;;;;;;2.83;2.00;;;19.90;64.40;;;;;;5127962;27;45266;-70
2023/05/21 05:25:06;;;;;;;2.15;1.70;;;20.00;64.50;;;;;;5136749;27;45461;-70
2023/05/21 05:27:33;;;;;;;2.28;1.70;;;19.90;64.50;;;;;;5145664;27;45310;-70
2023/05/21 05:30:00;;;;;;;3.50;1.95;;;19.90;64.50;;;;;;5145819;27;45427;-70
2023/05/21 05:32:26;;;;;;;2.10;1.63;;;19.90;64.50;;;;;;5134833;27;46618;-70
2023/05/21 05:34:53;;;;;;;2.22;1.63;;;19.90;64.50;;;;;;5141384;27;45412;-70
2023/05/21 05:37:20;;;;;;;3.22;2.00;;;19.90;64.50;;;;;;5134194;27;45455;-69
2023/05/21 05:39:48;;;;;;;2.42;1.70;;;19.90;64.60;;;;;;5133290;27;45479;-70
2023/05/21 05:42:15;;;;;;;2.50;1.83;;;19.90;64.50;;;;;;5140060;27;47508;-70
2023/05/21 05:44:42;;;;;;;4.07;1.80;;;19.90;64.60;;;;;;5125529;27;45251;-70
2023/05/21 05:47:09;;;;;;;3.28;1.90;;;19.90;64.60;;;;;;5126189;27;45360;-69
2023/05/21 05:49:36;;;;;;;2.72;1.60;;;19.90;64.70;;;;;;5133201;27;45464;-69
2023/05/21 05:52:03;;;;;;;2.35;1.60;;;19.90;64.50;;;;;;5123811;27;45454;-70
2023/05/21 05:54:30;;;;;;;3.80;1.80;;;19.90;64.60;;;;;;5124372;27;45265;-70
2023/05/21 05:56:58;;;;;;;1.92;1.60;;;19.90;64.60;;;;;;5124700;27;45413;-70
2023/05/21 05:59:25;;;;;;;3.13;2.00;;;19.90;64.60;;;;;;5132966;27;45414;-69
2023/05/21 06:01:51;;;;;;;2.38;1.67;;;20.00;64.70;;;;;;5131255;27;46540;-69
2023/05/21 06:04:18;;;;;;;2.40;1.80;;;20.00;64.70;;;;;;5129065;27;45283;-69
2023/05/21 06:06:46;;;;;;;2.38;1.63;;;20.00;64.60;;;;;;5123939;27;45445;-69
2023/05/21 06:09:13;;;;;;;2.05;1.60;;;20.00;64.70;;;;;;5129287;27;45387;-69
2023/05/21 06:11:39;;;;;;;2.00;1.70;;;20.00;64.60;;;;;;5125352;27;46247;-70
2023/05/21 06:14:07;;;;;;;2.35;1.67;;;20.00;64.70;;;;;;5143873;27;45321;-70
2023/05/21 06:16:35;;;;;;;1.92;1.60;;;20.00;64.70;;;;;;5142613;27;45270;-69
2023/05/21 06:19:02;;;;;;;2.25;1.70;;;20.00;64.70;;;;;;5131485;27;45517;-70
2023/05/21 06:21:29;;;;;;;1.98;1.58;;;20.00;64.80;;;;;;5131927;27;45501;-70
2023/05/21 06:23:56;;;;;;;2.30;1.75;;;20.00;64.80;;;;;;5132609;27;45457;-70
2023/05/21 06:26:23;;;;;;;2.00;1.67;;;20.00;64.90;;;;;;5123951;27;45529;-69
2023/05/21 06:28:50;;;;;;;2.63;1.80;;;20.00;64.80;;;;;;5126239;27;45378;-70
2023/05/21 06:31:21;;;;;;;1.80;1.58;;;20.00;65.00;;;;;;5123570;27;48373;-70
2023/05/21 06:33:48;;;;;;;2.80;2.10;;;19.90;64.80;;;;;;5130216;27;45401;-70
2023/05/21 06:36:15;;;;;;;1.90;1.60;;;20.00;65.00;;;;;;5131700;27;45473;-69
2023/05/21 06:38:42;;;;;;;2.00;1.60;;;19.90;64.90;;;;;;5131513;27;45562;-69
2023/05/21 06:41:09;;;;;;;2.78;1.90;;;19.90;64.90;;;;;;5124007;27;45487;-70
2023/05/21 06:43:36;;;;;;;2.10;1.63;;;20.00;65.00;;;;;;5125221;27;45483;-69
2023/05/21 06:46:02;;;;;;;2.58;1.88;;;20.00;65.00;;;;;;5134036;27;45374;-70
2023/05/21 06:48:31;;;;;;;3.97;1.90;;;19.90;65.00;;;;;;5134807;27;45387;-70
2023/05/21 06:50:57;;;;;;;2.17;1.55;;;19.90;64.90;;;;;;5147017;27;46594;-69
2023/05/21 06:53:24;;;;;;;3.08;1.83;;;19.90;65.90;;;;;;5127633;27;46260;-70
2023/05/21 06:55:52;;;;;;;3.72;2.05;;;20.00;65.00;;;;;;5122800;27;45369;-69
2023/05/21 06:58:20;;;;;;;3.17;1.80;;;20.00;65.00;;;;;;5132618;27;45324;-70
2023/05/21 07:00:47;;;;;;;2.30;1.60;;;20.00;65.10;;;;;;5124272;27;46600;-70
2023/05/21 07:03:14;;;;;;;2.33;1.63;;;20.00;65.00;;;;;;5136856;27;45386;-69
2023/05/21 07:05:42;;;;;;;1.67;1.58;;;20.00;65.00;;;;;;5133049;27;45540;-69
2023/05/21 07:08:08;;;;;;;2.33;1.85;;;20.00;65.00;;;;;;5123640;27;45422;-70
2023/05/21 07:10:35;;;;;;;2.25;1.60;;;20.00;65.00;;;;;;5141860;27;46308;-69
2023/05/21 07:13:02;;;;;;;2.45;1.80;;;20.00;65.00;;;;;;5139407;27;46051;-71
2023/05/21 07:15:29;;;;;;;2.47;1.60;;;20.00;65.00;;;;;;5132565;27;45252;-69
2023/05/21 07:17:56;;;;;;;2.15;1.90;;;20.00;65.00;;;;;;5134599;27;45375;-70
2023/05/21 07:20:22;;;;;;;3.95;1.95;;;20.00;65.00;;;;;;5142254;27;47517;-69
2023/05/21 07:22:50;;;;;;;4.07;2.05;;;20.00;65.10;;;;;;5138735;27;45400;-70
2023/05/21 07:25:17;;;;;;;1.75;1.60;;;20.00;65.10;;;;;;5143840;27;45341;-69
2023/05/21 07:27:44;;;;;;;1.95;1.67;;;20.00;65.10;;;;;;5139067;27;45533;-69
2023/05/21 07:30:11;;;;;;;2.25;1.88;;;20.00;65.20;;;;;;5132112;27;45509;-70
2023/05/21 07:32:38;;;;;;;1.95;1.70;;;20.00;65.20;;;;;;5128137;27;45578;-69
2023/05/21 07:35:05;;;;;;;2.45;2.08;;;20.00;65.20;;;;;;5146736;27;45531;-70
2023/05/21 07:37:32;;;;;;;2.58;2.05;;;20.00;65.30;;;;;;5136019;27;45322;-70
2023/05/21 07:40:00;;;;;;;3.30;2.17;;;20.00;65.30;;;;;;5133881;27;47692;-71
2023/05/21 07:42:27;;;;;;;3.30;1.60;;;19.90;65.20;;;;;;5131564;27;45661;-71
2023/05/21 07:44:54;;;;;;;2.83;1.85;;;20.00;65.30;;;;;;5126951;27;45285;-70
2023/05/21 07:47:22;;;;;;;3.78;2.38;;;20.00;65.40;;;;;;5129282;27;45196;-69
2023/05/21 07:49:49;;;;;;;2.10;1.90;;;19.90;65.40;;;;;;5126239;27;47155;-70
2023/05/21 07:52:15;;;;;;;2.53;1.90;;;19.90;65.30;;;;;;5133404;27;45485;-70
2023/05/21 07:54:42;;;;;;;2.88;2.20;;;19.90;65.40;;;;;;5130488;27;45312;-70
2023/05/21 07:57:10;;;;;;;2.78;2.13;;;20.00;65.40;;;;;;5134880;27;45457;-70
2023/05/21 07:59:37;;;;;;;2.67;1.98;;;20.00;65.50;;;;;;5131903;27;45327;-70
2023/05/21 08:02:04;;;;;;;1.80;1.52;;;20.00;65.50;;;;;;5134583;27;45385;-70
2023/05/21 08:04:31;;;;;;;3.30;2.00;;;20.00;65.50;;;;;;5126205;27;45342;-70
2023/05/21 08:06:57;;;;;;;3.35;2.10;;;20.00;65.50;;;;;;5131717;27;45471;-70
2023/05/21 08:09:24;;;;;;;2.55;2.10;;;20.00;65.60;;;;;;5136170;27;45311;-69
2023/05/21 08:11:51;;;;;;;2.20;1.70;;;20.00;65.80;;;;;;5136228;27;45360;-70
2023/05/21 08:14:19;;;;;;;2.47;2.00;;;20.00;65.60;;;;;;5138308;27;45533;-72
2023/05/21 08:16:46;;;;;;;3.55;2.50;;;20.00;65.80;;;;;;5129959;27;45568;-71
2023/05/21 08:19:13;;;;;;;3.03;1.98;;;20.00;65.70;;;;;;5140726;27;47586;-70
2023/05/21 08:21:40;;;;;;;2.25;1.77;;;20.00;65.70;;;;;;5130845;27;45347;-70
2023/05/21 08:24:07;;;;;;;3.88;2.03;;;20.00;65.70;;;;;;5125697;27;45395;-70
2023/05/21 08:26:34;;;;;;;4.53;1.95;;;20.00;65.80;;;;;;5125728;27;45669;-70
2023/05/21 08:29:01;;;;;;;2.85;2.25;;;20.00;65.80;;;;;;5132061;27;45566;-70
2023/05/21 08:31:29;;;;;;;3.75;2.10;;;20.00;65.90;;;;;;5130812;27;45625;-70
2023/05/21 08:33:56;;;;;;;2.42;1.88;;;20.00;65.80;;;;;;5138310;27;45492;-70
2023/05/21 08:36:23;;;;;;;2.38;2.08;;;20.00;65.80;;;;;;5125699;27;45312;-70
2023/05/21 08:38:50;;;;;;;3.70;2.28;;;20.00;65.80;;;;;;5131150;27;46244;-70
2023/05/21 08:41:18;;;;;;;2.22;1.98;;;20.00;65.80;;;;;;5141558;27;45338;-70
2023/05/21 08:43:47;;;;;;;2.50;2.10;;;20.00;65.90;;;;;;5127653;27;45524;-70
2023/05/21 08:46:14;;;;;;;3.20;2.17;;;20.00;65.90;;;;;;5124363;27;45406;-70
2023/05/21 08:48:42;;;;;;;3.55;2.03;;;20.00;66.00;;;;;;5126211;27;46975;-69
2023/05/21 08:51:09;;;;;;;3.08;2.28;;;20.00;66.00;;;;;;5124988;27;45499;-69
2023/05/21 08:53:36;;;;;;;5.03;1.90;;;20.00;66.00;;;;;;5127526;27;45546;-70
2023/05/21 08:56:04;;;;;;;4.18;1.95;;;20.00;66.10;;;;;;5131501;27;45446;-70
2023/05/21 08:58:33;;;;;;;2.80;2.10;;;20.00;66.10;;;;;;5131619;27;47432;-70
2023/05/21 09:01:00;;;;;;;4.60;2.75;;;20.00;66.20;;;;;;5126057;27;45438;-70
2023/05/21 09:03:28;;;;;;;5.57;2.30;;;20.00;66.20;;;;;;5131726;27;45333;-70
2023/05/21 09:05:57;;;;;;;4.25;2.40;;;20.00;66.40;;;;;;5126867;27;45477;-69
2023/05/21 09:08:30;;;;;;;4.43;2.28;;;20.00;66.30;;;;;;5130979;27;45349;-69
2023/05/21 09:10:58;;;;;;;3.30;2.35;;;20.00;66.30;;;;;;5125025;27;45464;-70
2023/05/21 09:13:26;;;;;;;3.38;2.38;;;20.00;66.30;;;;;;5130544;27;45565;-69
2023/05/21 09:15:53;;;;;;;2.92;2.40;;;20.00;66.40;;;;;;5127565;27;45585;-69
2023/05/21 09:18:20;;;;;;;3.17;2.38;;;20.00;66.30;;;;;;5124423;27;46062;-69
2023/05/21 09:20:47;;;;;;;2.78;2.30;;;20.00;66.40;;;;;;5119526;27;45451;-69
2023/05/21 09:23:17;;;;;;;3.92;2.42;;;20.00;66.40;;;;;;5125926;27;45439;-69
2023/05/21 09:25:46;;;;;;;4.18;2.55;;;20.00;66.50;;;;;;5132342;27;45305;-69
2023/05/21 09:28:14;;;;;;;2.80;2.33;;;20.00;66.50;;;;;;5138654;27;47328;-70
2023/05/21 09:30:45;;;;;;;2.58;2.20;;;20.00;66.60;;;;;;5123968;27;45422;-69
2023/05/21 09:33:12;;;;;;;3.50;2.40;;;20.00;66.60;;;;;;5123010;27;45374;-70
2023/05/21 09:35:45;;;;;;;2.97;2.40;;;20.00;66.60;;;;;;5123483;27;45407;-70
2023/05/21 09:38:12;;;;;;;3.35;2.78;;;20.00;66.70;;;;;;5131218;27;46548;-69
2023/05/21 09:40:44;;;;;;;2.75;2.10;;;20.00;66.70;;;;;;5125011;27;45444;-70
2023/05/21 09:43:14;;;;;;;3.05;2.53;;;20.00;66.80;;;;;;5138619;27;45458;-69
2023/05/21 09:45:50;;;;;;;4.50;2.67;;;20.00;66.80;;;;;;5123780;27;45311;-69
2023/05/21 09:48:17;;;;;;;4.63;2.70;;;20.00;66.90;;;;;;5124661;27;45480;-69
2023/05/21 09:50:44;;;;;;;3.22;2.58;;;20.00;66.90;;;;;;5126595;27;45355;-69
2023/05/21 09:53:12;;;;;;;3.88;3.00;;;20.00;67.10;;;;;;5122925;27;45403;-69
2023/05/21 09:55:40;;;;;;;2.72;2.35;;;20.00;67.00;;;;;;5124184;27;45608;-69
2023/05/21 09:58:08;;;;;;;3.80;2.80;;;20.10;67.00;;;;;;5127091;27;46518;-69
2023/05/21 10:00:34;;;;;;;4.00;2.78;;;20.00;66.90;;;;;;5123940;27;45400;-69
2023/05/21 10:03:05;;;;;;;3.38;2.80;;;20.10;66.90;;;;;;5129128;27;45685;-69
2023/05/21 10:05:33;;;;;;;3.40;2.77;;;20.10;67.00;;;;;;5125970;27;45419;-69
2023/05/21 10:08:01;;;;;;;3.97;2.80;;;20.10;66.90;;;;;;5123763;27;48222;-69
2023/05/21 10:10:29;;;;;;;3.75;2.90;;;20.10;66.90;;;;;;5131544;27;45298;-69
2023/05/21 10:13:01;;;;;;;4.00;2.90;;;20.10;66.90;;;;;;5123176;27;45344;-69
2023/05/21 10:15:31;;;;;;;3.90;3.00;;;20.10;66.80;;;;;;5130593;27;45412;-69
2023/05/21 10:18:00;;;;;;;4.00;3.00;;;20.20;66.80;;;;;;5123772;27;46914;-69
2023/05/21 10:20:27;;;;;;;3.53;2.90;;;20.20;66.90;;;;;;5123917;27;45376;-69
2023/05/21 10:22:54;;;;;;;4.53;3.00;;;20.20;66.90;;;;;;5122897;27;45432;-70
2023/05/21 10:25:23;;;;;;;5.60;3.00;;;20.20;67.00;;;;;;5131178;27;45287;-70
2023/05/21 10:27:50;;;;;;;3.80;2.88;;;20.20;67.00;;;;;;5123489;27;47320;-69
2023/05/21 10:30:18;;;;;;;4.45;3.05;;;20.10;67.00;;;;;;5123885;27;45508;-70
2023/05/21 10:32:47;;;;;;;5.93;3.15;;;20.10;67.20;;;;;;5132453;27;45425;-69
2023/05/21 10:35:16;;;;;;;3.83;3.10;;;20.10;67.10;;;;;;5123580;27;45444;-70
2023/05/21 10:37:43;;;;;;;3.63;2.90;;;20.10;67.30;;;;;;5129777;27;47596;-70
2023/05/21 10:40:11;;;;;;;3.67;3.25;;;20.10;67.30;;;;;;5122429;27;45270;-69
2023/05/21 10:43:02;;;;;;;6.07;4.00;;;20.10;67.50;;;;;;5129100;27;45389;-69
2023/05/21 10:45:45;;;;;;;3.88;2.95;;;20.10;67.50;;;;;;5132091;27;45373;-69
2023/05/21 10:48:48;;;;;;;3.95;3.13;;;20.10;67.70;;;;;;5137831;27;46413;-69
2023/05/21 10:51:20;;;;;;;4.55;3.10;;;20.10;67.80;;;;;;5127595;27;45351;-69
2023/05/21 10:54:09;;;;;;;3.85;3.17;;;20.10;67.80;;;;;;5126582;27;45280;-70
2023/05/21 10:56:42;;;;;;;4.93;3.38;;;20.10;67.80;;;;;;5133430;27;45458;-70
2023/05/21 10:59:21;;;;;;;5.55;3.30;;;20.10;67.70;;;;;;5135929;27;47378;-70
2023/05/21 11:01:51;;;;;;;5.47;3.33;;;20.10;67.70;;;;;;5133349;27;45384;-69
2023/05/21 11:04:22;;;;;;;4.25;3.45;;;20.10;67.60;;;;;;5127394;27;45348;-69
2023/05/21 11:06:48;;;;;;;4.72;3.00;;;20.10;67.60;;;;;;5131386;27;45561;-69
2023/05/21 11:09:16;;;;;;;5.18;3.40;;;20.10;67.70;;;;;;5135690;27;46214;-70
2023/05/21 11:11:44;;;;;;;4.82;3.20;;;20.20;67.70;;;;;;5126914;27;45372;-69
2023/05/21 11:14:38;;;;;;;4.97;3.60;;;20.20;67.80;;;;;;5131696;27;45272;-69
2023/05/21 11:17:12;;;;;;;4.55;3.50;;;20.20;67.80;;;;;;5131038;27;45315;-70
2023/05/21 11:19:40;;;;;;;4.32;3.25;;;20.20;67.80;;;;;;5126407;27;46682;-69
2023/05/21 11:22:08;;;;;;;4.82;3.63;;;20.20;67.80;;;;;;5125821;27;45296;-70
2023/05/21 11:24:38;;;;;;;4.85;3.20;;;20.20;67.80;;;;;;5126559;27;45397;-69
2023/05/21 11:27:06;;;;;;;4.97;3.75;;;20.20;68.00;;;;;;5125848;27;46118;-70
2023/05/21 11:29:44;;;;;;;4.88;3.63;;;20.20;68.00;;;;;;5126572;27;46616;-70
2023/05/21 11:32:14;;;;;;;4.45;3.45;;;20.20;68.20;;;;;;5133315;27;45415;-70
2023/05/21 11:34:42;;;;;;;4.63;3.50;;;20.20;68.30;;;;;;5132558;27;45359;-70
2023/05/21 11:37:29;;;;;;;4.35;3.08;;;20.10;68.20;;;;;;5141555;27;45489;-69
2023/05/21 11:39:57;;;;;;;7.70;3.70;;;20.10;68.30;;;;;;5131647;27;46452;-69
2023/05/21 11:42:34;;;;;;;5.75;4.00;;;20.10;68.60;;;;;;5134954;27;45288;-70
2023/05/21 11:45:02;;;;;;;4.82;3.60;;;20.10;68.50;;;;;;5126605;27;45442;-69
2023/05/21 11:47:31;;;;;;;4.88;3.88;;;20.10;68.60;;;;;;5126209;27;45557;-69
2023/05/21 11:49:59;;;;;;;5.72;3.63;;;20.20;68.70;;;;;;5127856;27;45283;-70
2023/05/21 11:52:29;;;;;;;4.25;3.75;;;20.10;68.60;;;;;;5134869;27;45290;-69
2023/05/21 11:54:56;;;;;;;5.75;3.63;;;20.20;68.80;;;;;;5134753;27;45440;-70
2023/05/21 11:57:29;;;;;;;5.63;4.22;;;20.20;68.80;;;;;;5125886;27;45244;-70
2023/05/21 11:59:57;;;;;;;5.32;3.88;;;20.20;68.70;;;;;;5127497;27;48335;-69
2023/05/21 12:02:26;;;;;;;5.45;4.28;;;20.20;68.70;;;;;;5125917;27;45375;-70
2023/05/21 12:04:58;;;;;;;5.97;4.15;;;20.20;68.70;;;;;;5126029;27;45385;-70
2023/05/21 12:07:27;;;;;;;5.03;3.97;;;20.20;68.70;;;;;;5130994;27;45285;-70
2023/05/21 12:09:54;;;;;;;4.95;3.90;;;20.20;68.70;;;;;;5134689;27;47514;-69
2023/05/21 12:12:22;;;;;;;5.78;3.97;;;20.20;68.90;;;;;;5126238;27;45353;-70
2023/05/21 12:14:50;;;;;;;4.80;4.07;;;20.20;68.70;;;;;;5132747;27;45464;-70
2023/05/21 12:17:18;;;;;;;5.22;3.75;;;20.20;68.70;;;;;;5126108;27;45525;-69
2023/05/21 12:19:46;;;;;;;6.03;3.67;;;20.20;68.70;;;;;;5125794;27;46286;-70
2023/05/21 12:22:15;;;;;;;4.72;3.90;;;20.20;68.70;;;;;;5125247;27;45277;-70
2023/05/21 12:24:43;;;;;;;5.63;3.70;;;20.20;68.80;;;;;;5130902;27;45478;-70
2023/05/21 12:27:12;;;;;;;4.45;3.47;;;20.20;68.80;;;;;;5127880;27;45370;-69
2023/05/21 12:29:41;;;;;;;5.00;3.67;;;20.20;69.00;;;;;;5125721;27;48665;-70
2023/05/21 12:32:09;;;;;;;5.07;3.67;;;20.20;69.00;;;;;;5125520;27;46134;-70
2023/05/21 12:34:44;;;;;;;5.65;3.97;;;20.20;68.90;;;;;;5125622;27;45467;-70
2023/05/21 12:37:12;;;;;;;5.85;3.95;;;20.20;69.20;;;;;;5139374;27;45555;-69
2023/05/21 12:39:43;;;;;;;6.32;4.50;;;20.20;69.10;;;;;;5126217;27;46251;-69
2023/05/21 12:42:10;;;;;;;6.85;4.07;;;20.20;69.20;;;;;;5127835;27;45348;-70
2023/05/21 12:44:39;;;;;;;5.28;3.70;;;20.20;69.40;;;;;;5126266;27;45339;-69
2023/05/21 12:47:06;;;;;;;5.95;3.55;;;20.20;69.40;;;;;;5132216;27;45560;-69
2023/05/21 12:49:34;;;;;;;5.57;4.30;;;20.20;69.50;;;;;;5130378;27;45426;-69
2023/05/21 12:52:07;;;;;;;5.15;3.88;;;20.20;69.70;;;;;;5139771;27;45402;-70
2023/05/21 12:54:35;;;;;;;6.28;4.35;;;20.20;69.60;;;;;;5133665;27;45493;-70